Time;durP1;ratioP1;P1;durP2;ratioP2;P2;SDS_P1;SDS_P2;PMS_P1;PMS_P2;Temp;Humidity;BMP_temperature;BMP_pressure;BME280_temperature;BME280_humidity;BME280_pressure;Samples;Min_cycle;Max_cycle;Signal;HPM_P1;HPM_P2
2022/11/17 00:00:24;;;;;;;0.90;0.30;;;;;10.60;98008.00;;;;10456703;28;20190;-76
2022/11/17 00:05:26;;;;;;;0.27;0.27;;;;;10.70;97999.00;;;;10437352;28;20222;-76
2022/11/17 00:10:28;;;;;;;0.83;0.20;;;;;10.70;97996.00;;;;10430420;28;20198;-76
2022/11/17 00:15:30;;;;;;;1.30;0.30;;;;;10.70;97966.00;;;;10431132;28;20205;-76
2022/11/17 00:25:52;;;;;;;0.90;0.57;;;;;10.60;97964.00;;;;10430072;28;20194;-76
2022/11/17 00:36:15;;;;;;;0.20;0.20;;;;;10.50;97958.00;;;;10455775;28;20226;-76
2022/11/17 00:41:17;;;;;;;0.70;0.70;;;;;10.40;97925.00;;;;10434871;28;20190;-76
2022/11/17 00:46:19;;;;;;;4.50;0.50;;;;;10.40;97939.00;;;;10442020;28;20202;-76
2022/11/17 00:51:20;;;;;;;2.80;0.67;;;;;10.40;97931.00;;;;10478667;28;20694;-76
2022/11/17 00:56:24;;;;;;;0.47;0.40;;;;;10.40;97944.00;;;;10478002;28;20193;-76
2022/11/17 01:01:26;;;;;;;0.73;0.60;;;;;10.40;97943.00;;;;10478424;28;20204;-76
2022/11/17 01:06:40;;;;;;;2.93;0.60;;;;;10.40;97960.00;;;;10446983;28;20244;-76
2022/11/17 01:11:43;;;;;;;1.40;0.80;;;;;10.50;97950.00;;;;10478176;28;20189;-76
2022/11/17 01:16:44;;;;;;;5.33;0.77;;;;;10.60;97931.00;;;;10463138;28;20656;-76
2022/11/17 01:21:47;;;;;;;1.73;0.50;;;;;10.60;97925.00;;;;10479385;28;20185;-76
2022/11/17 01:26:50;;;;;;;2.40;0.50;;;;;10.60;97913.00;;;;10476934;28;20688;-76
2022/11/17 01:31:52;;;;;;;1.90;0.37;;;;;10.70;97898.00;;;;10462372;28;20280;-76
2022/11/17 01:42:14;;;;;;;3.47;0.50;;;;;10.50;97875.00;;;;10453786;28;20190;-76
2022/11/17 01:47:36;;;;;;;0.70;0.40;;;;;10.40;97871.00;;;;10420794;28;20611;-76
2022/11/17 01:52:39;;;;;;;4.70;0.70;;;;;10.30;97856.00;;;;10436328;28;20194;-76
2022/11/17 01:57:51;;;;;;;2.83;0.67;;;;;10.30;97853.00;;;;10476395;28;20217;-76
2022/11/17 02:02:53;;;;;;;1.60;0.77;;;;;10.30;97847.00;;;;10478044;28;20204;-76
2022/11/17 02:07:57;;;;;;;3.03;0.83;;;;;10.40;97863.00;;;;10417765;28;20213;-76
2022/11/17 02:13:00;;;;;;;7.07;1.43;;;;;10.50;97848.00;;;;10476712;28;20182;-76
2022/11/17 02:18:02;;;;;;;2.83;0.73;;;;;10.50;97836.00;;;;10445165;28;20588;-76
2022/11/17 02:23:19;;;;;;;6.33;1.07;;;;;10.50;97826.00;;;;10476878;28;20556;-76
2022/11/17 02:28:27;;;;;;;9.40;1.60;;;;;10.50;97813.00;;;;10442602;28;20224;-76
2022/11/17 02:33:45;;;;;;;9.30;1.37;;;;;10.60;97805.00;;;;10459492;28;20201;-76
2022/11/17 02:39:10;;;;;;;6.87;1.00;;;;;10.70;97790.00;;;;10474897;28;20623;-76
2022/11/17 02:44:32;;;;;;;2.27;0.80;;;;;10.80;97788.00;;;;10475334;28;20201;-76
2022/11/17 02:49:37;;;;;;;1.83;0.90;;;;;10.80;97783.00;;;;10443136;28;20219;-76
2022/11/17 02:54:39;;;;;;;1.90;0.60;;;;;10.80;97787.00;;;;10474409;28;20644;-76
2022/11/17 02:59:47;;;;;;;2.93;0.70;;;;;10.80;97770.00;;;;10459251;28;20190;-75
2022/11/17 03:05:25;;;;;;;1.30;1.00;;;;;10.70;97760.00;;;;10442386;28;20251;-76
2022/11/17 03:10:36;;;;;;;4.53;0.40;;;;;10.70;97755.00;;;;10448852;28;20237;-75
2022/11/17 03:15:50;;;;;;;0.73;0.40;;;;;10.70;97762.00;;;;10410602;28;20598;-77
2022/11/17 03:21:13;;;;;;;4.37;0.50;;;;;10.70;97761.00;;;;10442403;28;20174;-76
2022/11/17 03:26:22;;;;;;;1.40;0.60;;;;;10.70;97740.00;;;;10424882;28;20274;-76
2022/11/17 03:31:26;;;;;;;3.23;0.83;;;;;10.70;97734.00;;;;10425070;28;20197;-76
2022/11/17 03:36:32;;;;;;;0.40;0.40;;;;;10.70;97737.00;;;;10430700;28;20198;-76
2022/11/17 03:41:40;;;;;;;3.23;0.73;;;;;10.70;97767.00;;;;10447172;28;20185;-77
2022/11/17 03:46:46;;;;;;;1.53;0.90;;;;;10.70;97762.00;;;;10441488;28;20233;-76
2022/11/17 03:51:48;;;;;;;5.37;0.57;;;;;10.70;97753.00;;;;10457734;28;20213;-76
2022/11/17 03:56:57;;;;;;;2.70;0.60;;;;;10.70;97757.00;;;;10441303;28;20198;-77
2022/11/17 04:01:59;;;;;;;2.90;0.77;;;;;10.70;97761.00;;;;10457821;28;20194;-76
2022/11/17 04:07:01;;;;;;;2.83;0.83;;;;;10.70;97791.00;;;;10425288;28;20206;-76
2022/11/17 04:17:23;;;;;;;0.40;0.20;;;;;10.60;97786.00;;;;10456432;28;20915;-76
2022/11/17 04:22:25;;;;;;;2.77;0.70;;;;;10.50;97786.00;;;;10480699;28;20200;-76
2022/11/17 04:32:48;;;;;;;4.37;1.07;;;;;10.50;97782.00;;;;10447966;28;20683;-76
2022/11/17 04:37:49;;;;;;;2.33;0.67;;;;;10.60;97783.00;;;;10423346;28;20204;-75
2022/11/17 04:42:51;;;;;;;3.60;1.23;;;;;10.50;97791.00;;;;10439720;28;20228;-76
2022/11/17 04:47:53;;;;;;;7.33;0.90;;;;;10.50;97795.00;;;;10406835;28;20206;-76
2022/11/17 04:52:55;;;;;;;3.57;0.83;;;;;10.40;97800.00;;;;10406238;28;20190;-76
2022/11/17 04:57:57;;;;;;;1.57;0.73;;;;;10.40;97812.00;;;;10405535;28;20191;-75
2022/11/17 05:02:59;;;;;;;2.17;0.80;;;;;10.40;97803.00;;;;10436250;28;20243;-75
2022/11/17 05:08:00;;;;;;;0.70;0.37;;;;;10.20;97829.00;;;;10446499;28;20297;-76
2022/11/17 05:13:20;;;;;;;1.83;0.30;;;;;10.00;97836.00;;;;10429814;28;20194;-76
2022/11/17 05:18:22;;;;;;;0.73;0.30;;;;;9.80;97824.00;;;;10439457;28;20190;-76
2022/11/17 05:28:44;;;;;;;1.83;0.63;;;;;9.60;97834.00;;;;10446205;28;20244;-76
2022/11/17 05:33:47;;;;;;;2.53;0.30;;;;;9.60;97843.00;;;;10439572;28;20198;-76
2022/11/17 05:38:49;;;;;;;0.23;0.23;;;;;9.60;97842.00;;;;10404029;28;20197;-76
2022/11/17 05:43:51;;;;;;;2.97;0.60;;;;;9.50;97848.00;;;;10437590;28;20190;-76
2022/11/17 05:48:53;;;;;;;0.83;0.40;;;;;9.50;97844.00;;;;10438220;28;20576;-76
2022/11/17 05:53:55;;;;;;;0.20;0.20;;;;;9.50;97853.00;;;;10445264;28;20186;-76
2022/11/17 05:59:20;;;;;;;0.37;0.37;;;;;9.50;97872.00;;;;10445326;28;20186;-76
2022/11/17 06:04:29;;;;;;;0.93;0.30;;;;;9.50;97869.00;;;;10421506;28;20255;-76
2022/11/17 06:09:34;;;;;;;1.40;0.33;;;;;9.50;97879.00;;;;10419790;28;20681;-76
2022/11/17 06:14:38;;;;;;;2.53;0.40;;;;;9.40;97889.00;;;;10420709;28;20201;-77
2022/11/17 06:19:44;;;;;;;3.27;0.47;;;;;9.40;97889.00;;;;10460774;28;20182;-76
2022/11/17 06:24:46;;;;;;;1.30;0.30;;;;;9.40;97899.00;;;;10459551;28;20250;-76
2022/11/17 06:29:48;;;;;;;0.77;0.30;;;;;9.40;97907.00;;;;10460351;28;20688;-75
2022/11/17 06:34:50;;;;;;;3.43;0.50;;;;;9.40;97916.00;;;;10459134;28;20193;-75
2022/11/17 06:39:57;;;;;;;0.83;0.53;;;;;9.40;97922.00;;;;10459375;28;20185;-76
2022/11/17 06:44:58;;;;;;;3.80;0.50;;;;;9.40;97901.00;;;;10441584;28;20197;-75
2022/11/17 06:50:01;;;;;;;0.73;0.40;;;;;9.40;97916.00;;;;10459413;28;20212;-76
2022/11/17 06:55:03;;;;;;;2.47;0.50;;;;;9.40;97921.00;;;;10458138;28;20792;-76
2022/11/17 07:00:06;;;;;;;3.77;0.90;;;;;9.40;97929.00;;;;10442541;28;20184;-76
2022/11/17 07:05:08;;;;;;;5.03;0.80;;;;;9.40;97943.00;;;;10436750;28;20224;-76
2022/11/17 07:10:10;;;;;;;1.13;0.50;;;;;9.40;97941.00;;;;10434363;28;20736;-76
2022/11/17 07:15:12;;;;;;;1.93;0.60;;;;;9.40;97947.00;;;;10447849;28;20217;-76
2022/11/17 07:20:14;;;;;;;5.03;0.70;;;;;9.30;97961.00;;;;10462909;28;20711;-75
2022/11/17 07:25:16;;;;;;;2.83;0.60;;;;;9.40;97972.00;;;;10409774;28;20822;-76
2022/11/17 07:30:23;;;;;;;1.10;0.63;;;;;9.50;97972.00;;;;10474991;28;20213;-75
2022/11/17 07:35:25;;;;;;;4.50;0.60;;;;;9.50;97986.00;;;;10436367;28;20201;-77
2022/11/17 07:40:28;;;;;;;0.70;0.60;;;;;9.60;97980.00;;;;10410379;28;20205;-77
2022/11/17 07:45:31;;;;;;;4.70;0.70;;;;;9.60;98003.00;;;;10435801;28;20702;-76
2022/11/17 07:50:33;;;;;;;0.97;0.77;;;;;9.50;98000.00;;;;10432435;28;20209;-76
2022/11/17 07:55:36;;;;;;;2.07;0.70;;;;;9.60;98000.00;;;;10434075;28;20204;-77
2022/11/17 08:00:38;;;;;;;1.23;0.80;;;;;9.60;98011.00;;;;10470664;28;20201;-76
2022/11/17 08:05:40;;;;;;;3.03;0.80;;;;;9.60;98027.00;;;;10428942;28;20214;-76
2022/11/17 08:10:44;;;;;;;3.57;0.90;;;;;9.70;98046.00;;;;10431753;28;20941;-76
2022/11/17 08:15:46;;;;;;;1.60;0.47;;;;;9.70;98043.00;;;;10416117;28;20198;-76
2022/11/17 08:20:48;;;;;;;1.17;0.60;;;;;9.80;98046.00;;;;10463000;28;20220;-76
2022/11/17 08:25:50;;;;;;;1.67;0.63;;;;;10.00;98046.00;;;;10479377;28;20255;-76
2022/11/17 08:30:52;;;;;;;3.13;0.93;;;;;10.00;98062.00;;;;10456097;28;20577;-76
2022/11/17 08:35:59;;;;;;;3.27;0.57;;;;;10.00;98073.00;;;;10422642;28;20209;-76
2022/11/17 08:41:03;;;;;;;5.53;0.50;;;;;10.10;98084.00;;;;10431503;28;20194;-76
2022/11/17 08:46:12;;;;;;;1.57;0.50;;;;;10.20;98104.00;;;;10480647;28;20170;-76
2022/11/17 08:51:14;;;;;;;3.10;0.80;;;;;10.40;98107.00;;;;10463002;28;20209;-77
2022/11/17 08:56:16;;;;;;;1.17;1.07;;;;;10.60;98118.00;;;;10446063;28;20194;-76
2022/11/17 09:01:18;;;;;;;1.90;0.63;;;;;10.60;98133.00;;;;10463165;28;20189;-77
2022/11/17 09:06:20;;;;;;;2.40;0.70;;;;;10.70;98133.00;;;;10469319;28;20237;-77
2022/11/17 09:11:22;;;;;;;0.60;0.60;;;;;10.90;98138.00;;;;10388421;28;20202;-77
2022/11/17 09:16:24;;;;;;;4.90;0.63;;;;;11.10;98153.00;;;;10460184;28;20668;-77
2022/11/17 09:21:26;;;;;;;3.97;0.60;;;;;11.40;98156.00;;;;10462440;28;20181;-77
2022/11/17 09:26:28;;;;;;;4.27;0.80;;;;;11.40;98172.00;;;;10461827;28;20209;-77
2022/11/17 09:31:30;;;;;;;3.87;1.03;;;;;11.40;98170.00;;;;10477255;28;20228;-77
2022/11/17 09:36:32;;;;;;;0.60;0.50;;;;;11.80;98158.00;;;;10445732;28;20284;-77
2022/11/17 09:41:41;;;;;;;2.63;0.87;;;;;12.20;98179.00;;;;10478734;28;20198;-77
2022/11/17 09:46:57;;;;;;;0.60;0.33;;;;;12.90;98192.00;;;;10445942;28;20198;-77
2022/11/17 09:52:26;;;;;;;4.27;0.73;;;;;13.10;98192.00;;;;10495394;28;20231;-77
2022/11/17 09:57:40;;;;;;;4.20;1.00;;;;;13.40;98208.00;;;;10460107;28;20209;-77
2022/11/17 10:02:43;;;;;;;2.80;0.90;;;;;13.30;98232.00;;;;10461798;28;20190;-77
2022/11/17 10:07:49;;;;;;;4.27;1.77;;;;;13.20;98226.00;;;;10461105;28;20680;-77
2022/11/17 10:12:56;;;;;;;3.23;0.90;;;;;12.90;98239.00;;;;10418655;28;20190;-77
2022/11/17 10:17:59;;;;;;;5.00;1.00;;;;;12.60;98225.00;;;;10399631;28;20202;-77
2022/11/17 10:23:02;;;;;;;3.53;0.73;;;;;12.40;98244.00;;;;10417219;28;20202;-77
2022/11/17 10:28:07;;;;;;;7.50;0.80;;;;;12.10;98283.00;;;;10460879;28;20324;-76
2022/11/17 10:33:12;;;;;;;2.73;0.80;;;;;12.00;98261.00;;;;10441717;28;20189;-77
2022/11/17 10:38:21;;;;;;;3.53;0.63;;;;;11.80;98273.00;;;;10435034;28;20192;-77
2022/11/17 10:43:25;;;;;;;2.10;0.60;;;;;11.60;98268.00;;;;10424620;28;20208;-76
2022/11/17 10:48:32;;;;;;;3.27;0.90;;;;;11.40;98264.00;;;;10457456;28;20591;-77
2022/11/17 10:53:37;;;;;;;1.17;0.60;;;;;11.30;98264.00;;;;10491594;28;20194;-77
2022/11/17 10:59:08;;;;;;;2.57;0.60;;;;;11.40;98272.00;;;;10431517;28;20282;-77
2022/11/17 11:04:40;;;;;;;1.30;0.70;;;;;11.90;98260.00;;;;10423136;28;20223;-77
2022/11/17 11:09:55;;;;;;;2.20;1.10;;;;;12.40;98255.00;;;;10441118;28;20305;-77
2022/11/17 11:14:58;;;;;;;3.07;0.80;;;;;13.00;98261.00;;;;10452883;28;20197;-77
2022/11/17 11:20:00;;;;;;;3.77;1.00;;;;;13.60;98275.00;;;;10459034;28;20653;-77
2022/11/17 11:25:05;;;;;;;1.93;0.80;;;;;13.50;98262.00;;;;10437325;28;20812;-77
2022/11/17 11:30:18;;;;;;;5.20;0.90;;;;;13.80;98286.00;;;;10429799;28;20208;-76
2022/11/17 11:35:36;;;;;;;2.27;0.70;;;;;13.40;98279.00;;;;10442443;28;20201;-77
2022/11/17 11:40:41;;;;;;;3.83;0.60;;;;;13.40;98284.00;;;;10429217;28;20194;-78
2022/11/17 11:46:22;;;;;;;2.00;0.70;;;;;13.30;98293.00;;;;10439931;28;20280;-78
2022/11/17 11:51:30;;;;;;;1.37;0.70;;;;;13.20;98307.00;;;;10396598;28;20676;-78
2022/11/17 11:56:36;;;;;;;0.73;0.50;;;;;14.10;98305.00;;;;10424837;28;20267;-78
2022/11/17 12:01:47;;;;;;;3.30;0.90;;;;;14.90;98301.00;;;;10447058;28;20194;-78
2022/11/17 12:07:09;;;;;;;4.80;0.80;;;;;15.00;98328.00;;;;10413950;28;20218;-78
2022/11/17 12:12:18;;;;;;;2.37;0.77;;;;;14.10;98339.00;;;;10445205;28;20205;-78
2022/11/17 12:17:24;;;;;;;1.80;0.73;;;;;13.50;98332.00;;;;10464815;28;20221;-78
2022/11/17 12:22:32;;;;;;;2.87;0.67;;;;;13.30;98334.00;;;;10432672;28;20240;-78
2022/11/17 12:27:34;;;;;;;3.03;0.70;;;;;13.30;98329.00;;;;10460256;28;20210;-78
2022/11/17 12:32:42;;;;;;;2.00;0.50;;;;;12.80;98338.00;;;;10412479;28;20213;-78
2022/11/17 12:37:44;;;;;;;2.33;0.93;;;;;12.60;98334.00;;;;10425978;28;20202;-78
2022/11/17 12:43:14;;;;;;;0.77;0.50;;;;;12.50;98341.00;;;;10428628;28;20830;-78
2022/11/17 12:48:18;;;;;;;2.00;0.80;;;;;12.70;98351.00;;;;10449986;28;20210;-78
2022/11/17 12:54:04;;;;;;;2.93;0.60;;;;;12.60;98371.00;;;;10459482;28;20201;-78
2022/11/17 12:59:51;;;;;;;1.70;0.60;;;;;12.70;98353.00;;;;10422863;28;20251;-78
2022/11/17 13:05:21;;;;;;;1.37;0.73;;;;;13.20;98351.00;;;;10460532;28;20348;-78
2022/11/17 13:10:30;;;;;;;1.07;0.60;;;;;13.50;98360.00;;;;10465712;28;20244;-77
2022/11/17 13:15:32;;;;;;;0.93;0.30;;;;;13.60;98364.00;;;;10465111;28;20196;-78
2022/11/17 13:20:33;;;;;;;3.43;0.50;;;;;13.90;98374.00;;;;10441593;28;20228;-77
2022/11/17 13:25:36;;;;;;;1.50;0.43;;;;;13.80;98372.00;;;;10431237;28;20606;-78
2022/11/17 13:30:38;;;;;;;1.47;0.60;;;;;13.40;98385.00;;;;10435524;28;20576;-78
2022/11/17 13:35:40;;;;;;;1.63;0.77;;;;;13.40;98393.00;;;;10465700;28;20186;-78
2022/11/17 13:40:43;;;;;;;2.73;0.67;;;;;13.40;98393.00;;;;10465446;28;20198;-77
2022/11/17 13:45:49;;;;;;;1.53;0.40;;;;;13.00;98404.00;;;;10440803;28;20244;-78
2022/11/17 13:50:51;;;;;;;1.67;0.77;;;;;12.90;98390.00;;;;10448728;28;20204;-78
2022/11/17 13:55:53;;;;;;;2.33;0.50;;;;;12.80;98395.00;;;;10473733;28;20189;-78
2022/11/17 14:00:57;;;;;;;1.93;0.60;;;;;13.10;98385.00;;;;10467956;28;20197;-77
2022/11/17 14:05:59;;;;;;;3.50;0.60;;;;;13.90;98384.00;;;;10436643;28;20211;-78
2022/11/17 14:11:14;;;;;;;2.47;0.73;;;;;13.60;98399.00;;;;10438972;28;20251;-78
2022/11/17 14:16:27;;;;;;;2.33;0.60;;;;;13.60;98412.00;;;;10428404;28;20187;-78
2022/11/17 14:21:31;;;;;;;0.93;0.60;;;;;13.40;98402.00;;;;10432422;28;20298;-78
2022/11/17 14:26:33;;;;;;;1.03;0.60;;;;;13.00;98395.00;;;;10427670;28;20206;-78
2022/11/17 14:31:35;;;;;;;4.33;1.23;;;;;12.90;98416.00;;;;10412914;28;20228;-77
2022/11/17 14:36:38;;;;;;;1.43;0.40;;;;;12.80;98411.00;;;;10450640;28;20712;-77
2022/11/17 14:41:42;;;;;;;4.93;0.60;;;;;12.90;98426.00;;;;10430017;28;20189;-78
2022/11/17 14:46:44;;;;;;;2.93;0.70;;;;;12.60;98438.00;;;;10447515;28;20616;-77
2022/11/17 14:51:49;;;;;;;0.70;0.60;;;;;12.30;98443.00;;;;10431683;28;20206;-77
2022/11/17 14:56:51;;;;;;;0.87;0.40;;;;;12.20;98444.00;;;;10435478;28;20678;-77
2022/11/17 15:01:53;;;;;;;2.03;0.50;;;;;12.10;98449.00;;;;10442673;28;20182;-77
2022/11/17 15:06:55;;;;;;;0.43;0.40;;;;;12.00;98453.00;;;;10456493;28;20217;-78
2022/11/17 15:11:57;;;;;;;1.40;0.50;;;;;11.80;98450.00;;;;10456555;28;20229;-78
2022/11/17 15:16:59;;;;;;;2.57;0.63;;;;;11.60;98443.00;;;;10427077;28;20206;-78
2022/11/17 15:22:01;;;;;;;1.73;0.70;;;;;11.40;98442.00;;;;10445702;28;20190;-77
2022/11/17 15:27:03;;;;;;;3.57;0.67;;;;;11.20;98446.00;;;;10420242;28;20218;-78
2022/11/17 15:32:06;;;;;;;1.90;0.80;;;;;11.10;98449.00;;;;10424873;28;20221;-77
2022/11/17 15:37:08;;;;;;;2.50;0.90;;;;;11.10;98448.00;;;;10411869;28;20701;-77
2022/11/17 15:42:10;;;;;;;1.63;1.17;;;;;11.00;98458.00;;;;10418948;28;20247;-77
2022/11/17 15:47:12;;;;;;;1.93;0.80;;;;;10.90;98460.00;;;;10453920;28;20272;-77
2022/11/17 15:52:14;;;;;;;3.00;0.77;;;;;10.90;98466.00;;;;10427572;28;20672;-78
2022/11/17 15:57:16;;;;;;;0.50;0.50;;;;;10.80;98470.00;;;;10433796;28;20316;-78
2022/11/17 16:02:18;;;;;;;2.67;0.80;;;;;10.80;98476.00;;;;10458061;28;20263;-77
2022/11/17 16:07:20;;;;;;;6.50;0.90;;;;;10.70;98495.00;;;;10435684;28;20276;-77
2022/11/17 16:12:21;;;;;;;2.30;0.90;;;;;10.70;98492.00;;;;10456634;28;20214;-77
2022/11/17 16:17:23;;;;;;;1.43;0.60;;;;;10.60;98506.00;;;;10428892;28;20197;-77
2022/11/17 16:22:25;;;;;;;1.40;1.00;;;;;10.60;98497.00;;;;10453986;28;20220;-78
2022/11/17 16:27:27;;;;;;;1.57;0.83;;;;;10.50;98505.00;;;;10437751;28;20292;-78
2022/11/17 16:32:30;;;;;;;0.70;0.70;;;;;10.50;98513.00;;;;10421532;28;20227;-77
2022/11/17 16:37:33;;;;;;;3.23;1.10;;;;;10.50;98515.00;;;;10426985;28;20252;-77
2022/11/17 16:42:35;;;;;;;7.80;1.80;;;;;10.40;98522.00;;;;10435265;28;20649;-77
2022/11/17 16:47:37;;;;;;;4.70;1.80;;;;;10.30;98521.00;;;;10444325;28;20185;-77
2022/11/17 16:52:39;;;;;;;2.57;1.27;;;;;10.20;98522.00;;;;10453529;28;20264;-77
2022/11/17 16:57:41;;;;;;;5.60;1.17;;;;;10.30;98516.00;;;;10447818;28;20194;-77
2022/11/17 17:02:47;;;;;;;3.37;1.60;;;;;10.30;98525.00;;;;10438531;28;20544;-77
2022/11/17 17:07:49;;;;;;;4.90;1.33;;;;;10.20;98531.00;;;;10448873;28;20222;-77
2022/11/17 17:12:51;;;;;;;3.03;1.60;;;;;10.00;98529.00;;;;10418085;28;20205;-77
2022/11/17 17:17:53;;;;;;;4.00;1.50;;;;;10.00;98545.00;;;;10454900;28;20200;-77
2022/11/17 17:22:55;;;;;;;4.70;1.77;;;;;9.90;98546.00;;;;10432756;28;20204;-76
2022/11/17 17:28:03;;;;;;;5.13;1.50;;;;;9.80;98553.00;;;;10437959;28;20212;-77
2022/11/17 17:33:05;;;;;;;4.13;2.13;;;;;9.70;98556.00;;;;10443365;28;20194;-77
2022/11/17 17:38:09;;;;;;;5.87;2.10;;;;;9.60;98579.00;;;;10465394;28;20206;-77
2022/11/17 17:43:11;;;;;;;4.40;2.20;;;;;9.50;98574.00;;;;10452959;28;20198;-77
2022/11/17 17:48:13;;;;;;;6.73;1.90;;;;;9.40;98573.00;;;;10475039;28;20229;-77
2022/11/17 17:53:15;;;;;;;3.93;1.83;;;;;9.40;98583.00;;;;10428681;28;20254;-77
2022/11/17 17:58:17;;;;;;;3.73;1.33;;;;;9.40;98586.00;;;;10430812;28;20704;-77
2022/11/17 18:03:19;;;;;;;2.07;1.47;;;;;9.40;98601.00;;;;10431909;28;20194;-77
2022/11/17 18:08:21;;;;;;;5.80;1.47;;;;;9.40;98608.00;;;;10444897;28;20287;-77
2022/11/17 18:13:22;;;;;;;4.00;1.60;;;;;9.40;98612.00;;;;10466799;28;20218;-77
2022/11/17 18:18:24;;;;;;;5.77;1.30;;;;;9.30;98620.00;;;;10439769;28;20675;-77
2022/11/17 18:23:28;;;;;;;5.97;1.20;;;;;9.30;98625.00;;;;10433195;28;20194;-76
2022/11/17 18:28:30;;;;;;;3.67;1.40;;;;;9.20;98632.00;;;;10432605;28;20197;-77
2022/11/17 18:33:34;;;;;;;3.30;1.27;;;;;9.20;98625.00;;;;10458376;28;20220;-77
2022/11/17 18:38:37;;;;;;;1.20;1.10;;;;;9.20;98625.00;;;;10467831;28;20177;-77
2022/11/17 18:43:39;;;;;;;3.17;1.80;;;;;9.30;98628.00;;;;10435246;28;20191;-76
2022/11/17 18:48:43;;;;;;;5.03;2.50;;;;;9.30;98635.00;;;;10430561;28;20719;-77
2022/11/17 18:53:46;;;;;;;5.30;1.83;;;;;9.20;98641.00;;;;10464907;28;20192;-77
2022/11/17 18:58:52;;;;;;;5.80;2.97;;;;;9.30;98640.00;;;;10443974;28;20197;-76
2022/11/17 19:04:06;;;;;;;8.73;4.13;;;;;9.20;98642.00;;;;10417468;28;20198;-76
2022/11/17 19:09:12;;;;;;;11.67;4.87;;;;;9.10;98644.00;;;;10436914;28;20226;-77
2022/11/17 19:14:20;;;;;;;7.23;2.10;;;;;9.10;98646.00;;;;10428834;28;20212;-77
2022/11/17 19:19:22;;;;;;;2.73;1.73;;;;;9.10;98651.00;;;;10426917;28;20235;-78
2022/11/17 19:24:24;;;;;;;6.60;1.90;;;;;9.10;98670.00;;;;10396768;28;20229;-78
2022/11/17 19:29:26;;;;;;;5.00;1.53;;;;;9.00;98689.00;;;;10427566;28;20209;-78
2022/11/17 19:34:28;;;;;;;2.73;1.83;;;;;9.10;98680.00;;;;10415120;28;20194;-78
2022/11/17 19:39:30;;;;;;;2.57;1.40;;;;;9.10;98691.00;;;;10430801;28;20731;-77
2022/11/17 19:44:32;;;;;;;4.17;1.80;;;;;9.20;98695.00;;;;10439321;28;20189;-78
2022/11/17 19:49:34;;;;;;;2.10;1.17;;;;;9.10;98694.00;;;;10435204;28;20227;-78
2022/11/17 19:54:36;;;;;;;3.43;1.40;;;;;9.10;98699.00;;;;10440279;28;20224;-78
2022/11/17 19:59:38;;;;;;;3.43;1.60;;;;;9.10;98702.00;;;;10439345;28;20203;-78
2022/11/17 20:04:40;;;;;;;6.40;1.30;;;;;9.10;98713.00;;;;10418673;28;20206;-78
2022/11/17 20:09:42;;;;;;;3.77;1.30;;;;;9.10;98719.00;;;;10453500;28;20206;-78
2022/11/17 20:14:46;;;;;;;3.07;1.00;;;;;9.00;98725.00;;;;10411408;28;20189;-78
2022/11/17 20:19:47;;;;;;;1.30;1.00;;;;;9.00;98726.00;;;;10421304;28;20232;-78
2022/11/17 20:24:49;;;;;;;1.43;0.87;;;;;8.80;98735.00;;;;10431762;28;20264;-78
2022/11/17 20:29:51;;;;;;;4.53;1.00;;;;;8.60;98739.00;;;;10408402;28;20711;-78
2022/11/17 20:34:53;;;;;;;3.03;0.87;;;;;8.60;98745.00;;;;10417542;28;20685;-78
2022/11/17 20:39:55;;;;;;;3.13;1.00;;;;;8.50;98750.00;;;;10416573;28;20205;-78
2022/11/17 20:44:57;;;;;;;2.70;1.13;;;;;8.40;98744.00;;;;10442641;28;20281;-78
2022/11/17 20:49:59;;;;;;;2.90;1.40;;;;;8.30;98752.00;;;;10439435;28;20210;-78
2022/11/17 20:55:01;;;;;;;4.57;1.73;;;;;8.40;98755.00;;;;10421251;28;20718;-78
2022/11/17 21:00:04;;;;;;;6.87;1.30;;;;;8.30;98758.00;;;;10407733;28;20267;-78
2022/11/17 21:05:06;;;;;;;3.23;1.80;;;;;8.40;98764.00;;;;10436827;28;20205;-78
2022/11/17 21:10:08;;;;;;;3.07;1.40;;;;;8.20;98768.00;;;;10432687;28;20255;-78
2022/11/17 21:15:11;;;;;;;2.50;1.57;;;;;8.20;98771.00;;;;10446278;28;20185;-78
2022/11/17 21:20:13;;;;;;;1.93;1.07;;;;;8.20;98781.00;;;;10440035;28;20609;-78
2022/11/17 21:25:15;;;;;;;3.67;1.30;;;;;8.20;98778.00;;;;10432275;28;20743;-78
2022/11/17 21:30:17;;;;;;;3.37;1.67;;;;;8.20;98788.00;;;;10455692;28;20200;-77
2022/11/17 21:35:19;;;;;;;6.17;1.83;;;;;8.20;98788.00;;;;10475028;28;20193;-77
2022/11/17 21:40:22;;;;;;;5.07;1.57;;;;;8.10;98803.00;;;;10420769;28;20229;-77
2022/11/17 21:45:23;;;;;;;2.63;1.50;;;;;8.20;98802.00;;;;10476824;28;20201;-77
2022/11/17 21:50:25;;;;;;;3.93;1.80;;;;;8.10;98814.00;;;;10431720;28;20228;-77
2022/11/17 21:55:28;;;;;;;5.87;2.10;;;;;8.10;98820.00;;;;10427675;28;20193;-78
2022/11/17 22:00:30;;;;;;;4.53;1.70;;;;;8.20;98816.00;;;;10454723;28;20197;-77
2022/11/17 22:05:32;;;;;;;4.47;1.47;;;;;8.30;98820.00;;;;10448372;28;20240;-77
2022/11/17 22:10:35;;;;;;;6.37;1.80;;;;;8.50;98835.00;;;;10445656;28;20296;-77
2022/11/17 22:15:37;;;;;;;3.90;1.43;;;;;8.60;98837.00;;;;10428925;28;20190;-77
2022/11/17 22:20:39;;;;;;;4.43;1.53;;;;;8.70;98837.00;;;;10460850;28;20707;-77
2022/11/17 22:25:41;;;;;;;5.13;1.63;;;;;8.70;98845.00;;;;10452277;28;20252;-77
2022/11/17 22:30:46;;;;;;;2.93;1.40;;;;;8.70;98858.00;;;;10439034;28;20216;-77
2022/11/17 22:35:49;;;;;;;3.47;1.60;;;;;8.60;98865.00;;;;10431459;28;20244;-77
2022/11/17 22:40:50;;;;;;;5.30;1.50;;;;;8.60;98873.00;;;;10440181;28;20194;-77
2022/11/17 22:45:52;;;;;;;4.13;1.50;;;;;8.60;98872.00;;;;10459026;28;20186;-78
2022/11/17 22:50:58;;;;;;;3.33;1.67;;;;;8.50;98873.00;;;;10444638;28;20205;-78
2022/11/17 22:56:05;;;;;;;4.30;1.93;;;;;8.40;98877.00;;;;10428732;28;20189;-78
2022/11/17 23:01:07;;;;;;;8.67;2.13;;;;;8.30;98888.00;;;;10447828;28;20187;-77
2022/11/17 23:06:09;;;;;;;1.83;1.23;;;;;8.30;98892.00;;;;10433418;28;20271;-78
2022/11/17 23:11:11;;;;;;;2.87;1.77;;;;;8.30;98897.00;;;;10477297;28;20233;-77
2022/11/17 23:16:33;;;;;;;5.97;1.67;;;;;8.30;98897.00;;;;10468179;28;20272;-77
2022/11/17 23:21:35;;;;;;;4.13;1.77;;;;;8.30;98905.00;;;;10443647;28;20588;-77
2022/11/17 23:26:38;;;;;;;4.63;1.63;;;;;8.30;98915.00;;;;10457534;28;20280;-77
2022/11/17 23:31:40;;;;;;;2.63;1.30;;;;;8.20;98917.00;;;;10458824;28;20209;-78
2022/11/17 23:36:42;;;;;;;3.70;1.37;;;;;8.20;98933.00;;;;10444907;28;20202;-78
2022/11/17 23:41:44;;;;;;;3.03;1.40;;;;;8.30;98934.00;;;;10441146;28;20193;-77
2022/11/17 23:46:46;;;;;;;2.27;1.57;;;;;8.40;98929.00;;;;10440621;28;20273;-77
2022/11/17 23:51:48;;;;;;;2.97;1.80;;;;;8.40;98940.00;;;;10456383;28;20206;-78
2022/11/17 23:56:51;;;;;;;8.00;1.90;;;;;8.50;98943.00;;;;10441756;28;20228;-78
